sensor_id;sensor_type;location;lat;lon;timestamp;temperature;humidity
70246;SHT30;57637;49.272;8.590;2024-01-16T00:02:05;-2.00;89.25
70246;SHT30;57637;49.272;8.590;2024-01-16T00:04:30;-2.02;89.10
70246;SHT30;57637;49.272;8.590;2024-01-16T00:06:56;-1.99;89.22
70246;SHT30;57637;49.272;8.590;2024-01-16T00:09:21;-2.00;89.14
70246;SHT30;57637;49.272;8.590;2024-01-16T00:11:46;-1.96;89.17
70246;SHT30;57637;49.272;8.590;2024-01-16T00:14:12;-1.93;89.20
70246;SHT30;57637;49.272;8.590;2024-01-16T00:16:44;-1.97;89.06
70246;SHT30;57637;49.272;8.590;2024-01-16T00:19:11;-1.95;89.05
70246;SHT30;57637;49.272;8.590;2024-01-16T00:21:40;-1.93;89.03
70246;SHT30;57637;49.272;8.590;2024-01-16T00:24:06;-1.93;89.02
70246;SHT30;57637;49.272;8.590;2024-01-16T00:26:32;-1.96;88.96
70246;SHT30;57637;49.272;8.590;2024-01-16T00:28:57;-1.99;88.96
70246;SHT30;57637;49.272;8.590;2024-01-16T00:31:22;-2.02;89.01
70246;SHT30;57637;49.272;8.590;2024-01-16T00:33:48;-2.03;89.11
70246;SHT30;57637;49.272;8.590;2024-01-16T00:36:14;-2.00;89.27
70246;SHT30;57637;49.272;8.590;2024-01-16T00:38:40;-2.05;89.16
70246;SHT30;57637;49.272;8.590;2024-01-16T00:41:05;-2.05;89.22
70246;SHT30;57637;49.272;8.590;2024-01-16T00:43:31;-2.02;89.25
70246;SHT30;57637;49.272;8.590;2024-01-16T00:45:57;-1.99;89.21
70246;SHT30;57637;49.272;8.590;2024-01-16T00:48:22;-1.97;89.25
70246;SHT30;57637;49.272;8.590;2024-01-16T00:50:48;-1.99;89.16
70246;SHT30;57637;49.272;8.590;2024-01-16T00:53:15;-1.93;89.16
70246;SHT30;57637;49.272;8.590;2024-01-16T00:55:41;-1.93;89.12
70246;SHT30;57637;49.272;8.590;2024-01-16T00:58:06;-1.92;88.93
70246;SHT30;57637;49.272;8.590;2024-01-16T01:00:31;-1.90;88.97
70246;SHT30;57637;49.272;8.590;2024-01-16T01:02:58;-1.92;88.95
70246;SHT30;57637;49.272;8.590;2024-01-16T01:05:24;-1.89;89.00
70246;SHT30;57637;49.272;8.590;2024-01-16T01:07:53;-1.92;88.86
70246;SHT30;57637;49.272;8.590;2024-01-16T01:10:20;-1.95;88.86
70246;SHT30;57637;49.272;8.590;2024-01-16T01:12:45;-1.96;88.94
70246;SHT30;57637;49.272;8.590;2024-01-16T01:15:10;-1.97;88.94
70246;SHT30;57637;49.272;8.590;2024-01-16T01:17:35;-1.99;88.92
70246;SHT30;57637;49.272;8.590;2024-01-16T01:20:01;-1.92;89.15
70246;SHT30;57637;49.272;8.590;2024-01-16T01:22:26;-1.96;88.90
70246;SHT30;57637;49.272;8.590;2024-01-16T01:24:52;-1.95;88.98
70246;SHT30;57637;49.272;8.590;2024-01-16T01:27:17;-1.99;88.98
70246;SHT30;57637;49.272;8.590;2024-01-16T01:29:42;-2.02;89.10
70246;SHT30;57637;49.272;8.590;2024-01-16T01:32:08;-2.05;89.01
70246;SHT30;57637;49.272;8.590;2024-01-16T01:34:33;-2.07;89.08
70246;SHT30;57637;49.272;8.590;2024-01-16T01:36:59;-2.13;89.13
70246;SHT30;57637;49.272;8.590;2024-01-16T01:39:24;-2.10;89.23
70246;SHT30;57637;49.272;8.590;2024-01-16T01:41:50;-2.10;89.16
70246;SHT30;57637;49.272;8.590;2024-01-16T01:44:15;-2.10;89.14
70246;SHT30;57637;49.272;8.590;2024-01-16T01:46:41;-2.07;89.28
70246;SHT30;57637;49.272;8.590;2024-01-16T01:49:07;-2.06;89.15
70246;SHT30;57637;49.272;8.590;2024-01-16T01:51:32;-2.07;89.21
70246;SHT30;57637;49.272;8.590;2024-01-16T01:53:58;-2.06;89.26
70246;SHT30;57637;49.272;8.590;2024-01-16T01:56:26;-2.10;89.24
70246;SHT30;57637;49.272;8.590;2024-01-16T01:58:53;-2.10;89.29
70246;SHT30;57637;49.272;8.590;2024-01-16T02:01:21;-2.10;89.37
70246;SHT30;57637;49.272;8.590;2024-01-16T02:03:47;-2.10;89.30
70246;SHT30;57637;49.272;8.590;2024-01-16T02:06:14;-2.11;89.34
70246;SHT30;57637;49.272;8.590;2024-01-16T02:08:41;-2.10;89.36
70246;SHT30;57637;49.272;8.590;2024-01-16T02:11:07;-2.11;89.34
70246;SHT30;57637;49.272;8.590;2024-01-16T02:13:32;-2.11;89.34
70246;SHT30;57637;49.272;8.590;2024-01-16T02:15:58;-2.16;89.35
70246;SHT30;57637;49.272;8.590;2024-01-16T02:18:23;-2.16;89.47
70246;SHT30;57637;49.272;8.590;2024-01-16T02:20:48;-2.17;89.41
70246;SHT30;57637;49.272;8.590;2024-01-16T02:23:14;-2.13;89.41
70246;SHT30;57637;49.272;8.590;2024-01-16T02:25:42;-2.10;89.40
70246;SHT30;57637;49.272;8.590;2024-01-16T02:28:08;-2.11;89.35
70246;SHT30;57637;49.272;8.590;2024-01-16T02:30:34;-2.10;89.28
70246;SHT30;57637;49.272;8.590;2024-01-16T02:32:59;-2.10;89.25
70246;SHT30;57637;49.272;8.590;2024-01-16T02:35:24;-2.07;89.32
70246;SHT30;57637;49.272;8.590;2024-01-16T02:37:50;-2.11;89.30
70246;SHT30;57637;49.272;8.590;2024-01-16T02:40:15;-2.05;89.33
70246;SHT30;57637;49.272;8.590;2024-01-16T02:42:40;-2.09;89.24
70246;SHT30;57637;49.272;8.590;2024-01-16T02:45:06;-2.13;89.29
70246;SHT30;57637;49.272;8.590;2024-01-16T02:47:31;-2.16;89.28
70246;SHT30;57637;49.272;8.590;2024-01-16T02:49:57;-2.16;89.42
70246;SHT30;57637;49.272;8.590;2024-01-16T02:52:23;-2.13;89.47
70246;SHT30;57637;49.272;8.590;2024-01-16T02:54:48;-2.13;89.57
70246;SHT30;57637;49.272;8.590;2024-01-16T02:57:14;-2.16;89.46
70246;SHT30;57637;49.272;8.590;2024-01-16T02:59:39;-2.20;89.47
70246;SHT30;57637;49.272;8.590;2024-01-16T03:02:04;-2.22;89.59
70246;SHT30;57637;49.272;8.590;2024-01-16T03:04:30;-2.20;89.60
70246;SHT30;57637;49.272;8.590;2024-01-16T03:06:55;-2.26;89.62
70246;SHT30;57637;49.272;8.590;2024-01-16T03:09:20;-2.27;89.76
70246;SHT30;57637;49.272;8.590;2024-01-16T03:11:46;-2.27;89.81
70246;SHT30;57637;49.272;8.590;2024-01-16T03:14:11;-2.27;89.90
70246;SHT30;57637;49.272;8.590;2024-01-16T03:16:38;-2.29;89.94
70246;SHT30;57637;49.272;8.590;2024-01-16T03:19:03;-2.26;90.04
70246;SHT30;57637;49.272;8.590;2024-01-16T03:21:29;-2.27;90.01
70246;SHT30;57637;49.272;8.590;2024-01-16T03:23:54;-2.29;90.02
70246;SHT30;57637;49.272;8.590;2024-01-16T03:26:19;-2.29;90.06
70246;SHT30;57637;49.272;8.590;2024-01-16T03:28:45;-2.30;90.06
70246;SHT30;57637;49.272;8.590;2024-01-16T03:31:11;-2.30;90.15
70246;SHT30;57637;49.272;8.590;2024-01-16T03:33:37;-2.32;90.16
70246;SHT30;57637;49.272;8.590;2024-01-16T03:36:07;-2.30;90.26
70246;SHT30;57637;49.272;8.590;2024-01-16T03:38:32;-2.27;90.23
70246;SHT30;57637;49.272;8.590;2024-01-16T03:40:59;-2.26;90.18
70246;SHT30;57637;49.272;8.590;2024-01-16T03:43:24;-2.26;90.15
70246;SHT30;57637;49.272;8.590;2024-01-16T03:45:49;-2.27;90.19
70246;SHT30;57637;49.272;8.590;2024-01-16T03:48:15;-2.27;90.18
70246;SHT30;57637;49.272;8.590;2024-01-16T03:50:40;-2.27;90.20
70246;SHT30;57637;49.272;8.590;2024-01-16T03:53:08;-2.29;90.10
70246;SHT30;57637;49.272;8.590;2024-01-16T03:55:34;-2.30;90.15
70246;SHT30;57637;49.272;8.590;2024-01-16T03:57:59;-2.33;90.17
70246;SHT30;57637;49.272;8.590;2024-01-16T04:00:24;-2.37;90.20
70246;SHT30;57637;49.272;8.590;2024-01-16T04:02:50;-2.40;90.20
70246;SHT30;57637;49.272;8.590;2024-01-16T04:05:15;-2.40;90.28
70246;SHT30;57637;49.272;8.590;2024-01-16T04:07:40;-2.41;90.35
70246;SHT30;57637;49.272;8.590;2024-01-16T04:10:06;-2.41;90.39
70246;SHT30;57637;49.272;8.590;2024-01-16T04:12:32;-2.44;90.45
70246;SHT30;57637;49.272;8.590;2024-01-16T04:14:57;-2.40;90.47
70246;SHT30;57637;49.272;8.590;2024-01-16T04:17:22;-2.40;90.54
70246;SHT30;57637;49.272;8.590;2024-01-16T04:19:47;-2.36;90.54
70246;SHT30;57637;49.272;8.590;2024-01-16T04:22:13;-2.34;90.44
70246;SHT30;57637;49.272;8.590;2024-01-16T04:24:38;-2.30;90.48
70246;SHT30;57637;49.272;8.590;2024-01-16T04:27:03;-2.30;90.40
70246;SHT30;57637;49.272;8.590;2024-01-16T04:29:29;-2.23;90.42
70246;SHT30;57637;49.272;8.590;2024-01-16T04:31:54;-2.23;90.29
70246;SHT30;57637;49.272;8.590;2024-01-16T04:34:20;-2.26;90.23
70246;SHT30;57637;49.272;8.590;2024-01-16T04:36:45;-2.23;90.24
70246;SHT30;57637;49.272;8.590;2024-01-16T04:39:10;-2.23;90.27
70246;SHT30;57637;49.272;8.590;2024-01-16T04:41:38;-2.25;90.20
70246;SHT30;57637;49.272;8.590;2024-01-16T04:44:03;-2.22;90.14
70246;SHT30;57637;49.272;8.590;2024-01-16T04:46:28;-2.22;90.07
70246;SHT30;57637;49.272;8.590;2024-01-16T04:48:54;-2.22;90.09
70246;SHT30;57637;49.272;8.590;2024-01-16T04:51:20;-2.20;90.09
70246;SHT30;57637;49.272;8.590;2024-01-16T04:53:45;-2.26;90.10
70246;SHT30;57637;49.272;8.590;2024-01-16T04:56:10;-2.22;90.06
70246;SHT30;57637;49.272;8.590;2024-01-16T04:58:35;-2.23;90.05
70246;SHT30;57637;49.272;8.590;2024-01-16T05:01:01;-2.27;89.98
70246;SHT30;57637;49.272;8.590;2024-01-16T05:03:26;-2.29;90.00
70246;SHT30;57637;49.272;8.590;2024-01-16T05:05:52;-2.34;90.01
70246;SHT30;57637;49.272;8.590;2024-01-16T05:08:17;-2.39;90.07
70246;SHT30;57637;49.272;8.590;2024-01-16T05:10:43;-2.41;90.03
70246;SHT30;57637;49.272;8.590;2024-01-16T05:13:08;-2.44;90.07
70246;SHT30;57637;49.272;8.590;2024-01-16T05:15:34;-2.47;90.15
70246;SHT30;57637;49.272;8.590;2024-01-16T05:17:59;-2.48;90.19
70246;SHT30;57637;49.272;8.590;2024-01-16T05:20:24;-2.50;90.20
70246;SHT30;57637;49.272;8.590;2024-01-16T05:22:49;-2.51;90.20
70246;SHT30;57637;49.272;8.590;2024-01-16T05:25:15;-2.50;90.20
70246;SHT30;57637;49.272;8.590;2024-01-16T05:27:42;-2.53;90.20
70246;SHT30;57637;49.272;8.590;2024-01-16T05:30:08;-2.54;90.17
70246;SHT30;57637;49.272;8.590;2024-01-16T05:32:34;-2.56;90.05
70246;SHT30;57637;49.272;8.590;2024-01-16T05:35:00;-2.61;90.05
70246;SHT30;57637;49.272;8.590;2024-01-16T05:37:25;-2.67;90.11
70246;SHT30;57637;49.272;8.590;2024-01-16T05:39:50;-2.71;90.18
70246;SHT30;57637;49.272;8.590;2024-01-16T05:42:16;-2.78;90.20
70246;SHT30;57637;49.272;8.590;2024-01-16T05:44:41;-2.80;90.35
70246;SHT30;57637;49.272;8.590;2024-01-16T05:47:06;-2.84;90.43
70246;SHT30;57637;49.272;8.590;2024-01-16T05:49:32;-2.84;90.45
70246;SHT30;57637;49.272;8.590;2024-01-16T05:51:57;-2.87;90.47
70246;SHT30;57637;49.272;8.590;2024-01-16T05:54:22;-2.91;90.53
70246;SHT30;57637;49.272;8.590;2024-01-16T05:56:48;-2.93;90.52
70246;SHT30;57637;49.272;8.590;2024-01-16T05:59:14;-2.95;90.63
70246;SHT30;57637;49.272;8.590;2024-01-16T06:01:40;-2.95;90.62
70246;SHT30;57637;49.272;8.590;2024-01-16T06:04:05;-2.95;90.61
70246;SHT30;57637;49.272;8.590;2024-01-16T06:06:30;-2.93;90.66
70246;SHT30;57637;49.272;8.590;2024-01-16T06:08:56;-2.92;90.67
70246;SHT30;57637;49.272;8.590;2024-01-16T06:11:31;-2.91;90.65
70246;SHT30;57637;49.272;8.590;2024-01-16T06:13:57;-2.91;90.58
70246;SHT30;57637;49.272;8.590;2024-01-16T06:16:24;-2.95;90.65
70246;SHT30;57637;49.272;8.590;2024-01-16T06:18:50;-2.96;90.61
70246;SHT30;57637;49.272;8.590;2024-01-16T06:21:16;-2.99;90.60
70246;SHT30;57637;49.272;8.590;2024-01-16T06:23:42;-3.02;90.61
70246;SHT30;57637;49.272;8.590;2024-01-16T06:26:08;-3.03;90.68
70246;SHT30;57637;49.272;8.590;2024-01-16T06:28:33;-3.02;90.67
70246;SHT30;57637;49.272;8.590;2024-01-16T06:30:59;-3.02;90.68
70246;SHT30;57637;49.272;8.590;2024-01-16T06:33:24;-3.02;90.63
70246;SHT30;57637;49.272;8.590;2024-01-16T06:35:50;-3.02;90.66
70246;SHT30;57637;49.272;8.590;2024-01-16T06:38:16;-3.01;90.58
70246;SHT30;57637;49.272;8.590;2024-01-16T06:40:41;-3.03;90.57
70246;SHT30;57637;49.272;8.590;2024-01-16T06:43:07;-3.03;90.53
70246;SHT30;57637;49.272;8.590;2024-01-16T06:45:32;-2.99;90.52
70246;SHT30;57637;49.272;8.590;2024-01-16T06:47:57;-3.01;90.45
70246;SHT30;57637;49.272;8.590;2024-01-16T06:50:22;-2.92;90.62
70246;SHT30;57637;49.272;8.590;2024-01-16T06:52:48;-2.91;90.49
70246;SHT30;57637;49.272;8.590;2024-01-16T06:55:13;-2.89;90.40
70246;SHT30;57637;49.272;8.590;2024-01-16T06:57:38;-2.88;90.37
70246;SHT30;57637;49.272;8.590;2024-01-16T07:00:04;-2.85;90.34
70246;SHT30;57637;49.272;8.590;2024-01-16T07:02:32;-2.87;90.25
70246;SHT30;57637;49.272;8.590;2024-01-16T07:04:57;-2.85;90.30
70246;SHT30;57637;49.272;8.590;2024-01-16T07:07:23;-2.87;90.28
70246;SHT30;57637;49.272;8.590;2024-01-16T07:09:49;-2.88;90.33
70246;SHT30;57637;49.272;8.590;2024-01-16T07:12:15;-2.87;90.32
70246;SHT30;57637;49.272;8.590;2024-01-16T07:14:40;-2.87;90.32
70246;SHT30;57637;49.272;8.590;2024-01-16T07:17:06;-2.85;90.34
70246;SHT30;57637;49.272;8.590;2024-01-16T07:19:32;-2.88;90.34
70246;SHT30;57637;49.272;8.590;2024-01-16T07:21:58;-2.85;90.37
70246;SHT30;57637;49.272;8.590;2024-01-16T07:24:23;-2.84;90.35
70246;SHT30;57637;49.272;8.590;2024-01-16T07:26:48;-2.81;90.31
70246;SHT30;57637;49.272;8.590;2024-01-16T07:29:14;-2.80;90.31
70246;SHT30;57637;49.272;8.590;2024-01-16T07:31:39;-2.75;90.20
70246;SHT30;57637;49.272;8.590;2024-01-16T07:34:04;-2.75;90.17
70246;SHT30;57637;49.272;8.590;2024-01-16T07:36:30;-2.71;90.11
70246;SHT30;57637;49.272;8.590;2024-01-16T07:38:55;-2.72;90.12
70246;SHT30;57637;49.272;8.590;2024-01-16T07:41:20;-2.70;90.07
70246;SHT30;57637;49.272;8.590;2024-01-16T07:43:46;-2.62;90.12
70246;SHT30;57637;49.272;8.590;2024-01-16T07:46:11;-2.60;89.96
70246;SHT30;57637;49.272;8.590;2024-01-16T07:48:36;-2.57;89.88
70246;SHT30;57637;49.272;8.590;2024-01-16T07:51:05;-2.54;89.77
70246;SHT30;57637;49.272;8.590;2024-01-16T07:53:31;-2.53;89.81
70246;SHT30;57637;49.272;8.590;2024-01-16T07:55:56;-2.50;89.71
70246;SHT30;57637;49.272;8.590;2024-01-16T07:58:22;-2.44;89.63
70246;SHT30;57637;49.272;8.590;2024-01-16T08:00:48;-2.40;89.62
70246;SHT30;57637;49.272;8.590;2024-01-16T08:03:13;-2.34;89.43
70246;SHT30;57637;49.272;8.590;2024-01-16T08:05:39;-2.30;89.36
70246;SHT30;57637;49.272;8.590;2024-01-16T08:08:07;-2.29;89.31
70246;SHT30;57637;49.272;8.590;2024-01-16T08:10:34;-2.23;89.37
70246;SHT30;57637;49.272;8.590;2024-01-16T08:12:59;-2.14;89.17
70246;SHT30;57637;49.272;8.590;2024-01-16T08:15:25;-2.13;89.08
70246;SHT30;57637;49.272;8.590;2024-01-16T08:17:50;-2.05;89.02
70246;SHT30;57637;49.272;8.590;2024-01-16T08:20:16;-1.96;88.82
70246;SHT30;57637;49.272;8.590;2024-01-16T08:22:41;-1.92;88.58
70246;SHT30;57637;49.272;8.590;2024-01-16T08:25:06;-1.83;88.51
70246;SHT30;57637;49.272;8.590;2024-01-16T08:27:33;-1.78;88.36
70246;SHT30;57637;49.272;8.590;2024-01-16T08:29:58;-1.69;88.16
70246;SHT30;57637;49.272;8.590;2024-01-16T08:32:24;-1.62;87.89
70246;SHT30;57637;49.272;8.590;2024-01-16T08:34:49;-1.56;87.64
70246;SHT30;57637;49.272;8.590;2024-01-16T08:37:14;-1.48;87.66
70246;SHT30;57637;49.272;8.590;2024-01-16T08:39:40;-1.40;87.41
70246;SHT30;57637;49.272;8.590;2024-01-16T08:42:05;-1.30;87.02
70246;SHT30;57637;49.272;8.590;2024-01-16T08:44:30;-1.24;86.92
70246;SHT30;57637;49.272;8.590;2024-01-16T08:46:56;-1.15;86.62
70246;SHT30;57637;49.272;8.590;2024-01-16T08:49:22;-1.10;86.36
70246;SHT30;57637;49.272;8.590;2024-01-16T08:51:48;-1.00;86.38
70246;SHT30;57637;49.272;8.590;2024-01-16T08:54:13;-1.05;85.97
70246;SHT30;57637;49.272;8.590;2024-01-16T08:56:38;-1.05;86.09
70246;SHT30;57637;49.272;8.590;2024-01-16T08:59:04;-0.97;85.75
70246;SHT30;57637;49.272;8.590;2024-01-16T09:01:29;-0.86;85.51
70246;SHT30;57637;49.272;8.590;2024-01-16T09:03:54;-0.76;85.24
70246;SHT30;57637;49.272;8.590;2024-01-16T09:06:20;-0.59;85.30
70246;SHT30;57637;49.272;8.590;2024-01-16T09:08:45;-0.41;85.28
70246;SHT30;57637;49.272;8.590;2024-01-16T09:11:11;-0.26;84.87
70246;SHT30;57637;49.272;8.590;2024-01-16T09:13:37;-0.17;84.62
70246;SHT30;57637;49.272;8.590;2024-01-16T09:16:03;-0.02;84.18
70246;SHT30;57637;49.272;8.590;2024-01-16T09:18:29;-0.12;82.84
70246;SHT30;57637;49.272;8.590;2024-01-16T09:20:54;0.02;83.09
70246;SHT30;57637;49.272;8.590;2024-01-16T09:23:20;0.01;82.74
70246;SHT30;57637;49.272;8.590;2024-01-16T09:25:45;0.10;82.53
70246;SHT30;57637;49.272;8.590;2024-01-16T09:28:11;0.16;82.32
70246;SHT30;57637;49.272;8.590;2024-01-16T09:30:37;0.26;82.08
70246;SHT30;57637;49.272;8.590;2024-01-16T09:33:03;0.43;82.20
70246;SHT30;57637;49.272;8.590;2024-01-16T09:35:31;0.37;81.23
70246;SHT30;57637;49.272;8.590;2024-01-16T09:37:57;0.57;81.11
70246;SHT30;57637;49.272;8.590;2024-01-16T09:40:24;0.68;80.69
70246;SHT30;57637;49.272;8.590;2024-01-16T09:42:49;0.57;80.67
70246;SHT30;57637;49.272;8.590;2024-01-16T09:45:16;0.73;80.28
70246;SHT30;57637;49.272;8.590;2024-01-16T09:47:45;0.73;79.68
70246;SHT30;57637;49.272;8.590;2024-01-16T09:50:11;0.78;79.76
70246;SHT30;57637;49.272;8.590;2024-01-16T09:52:39;0.95;79.77
70246;SHT30;57637;49.272;8.590;2024-01-16T09:55:04;0.91;79.14
70246;SHT30;57637;49.272;8.590;2024-01-16T09:57:30;0.92;79.11
70246;SHT30;57637;49.272;8.590;2024-01-16T09:59:56;1.15;79.67
70246;SHT30;57637;49.272;8.590;2024-01-16T10:02:25;1.22;79.45
70246;SHT30;57637;49.272;8.590;2024-01-16T10:04:51;1.22;79.24
70246;SHT30;57637;49.272;8.590;2024-01-16T10:07:16;1.28;79.22
70246;SHT30;57637;49.272;8.590;2024-01-16T10:09:43;1.36;78.87
70246;SHT30;57637;49.272;8.590;2024-01-16T10:12:08;1.32;78.69
70246;SHT30;57637;49.272;8.590;2024-01-16T10:14:35;1.36;78.34
70246;SHT30;57637;49.272;8.590;2024-01-16T10:17:02;1.43;78.07
70246;SHT30;57637;49.272;8.590;2024-01-16T10:19:30;1.39;78.03
70246;SHT30;57637;49.272;8.590;2024-01-16T10:22:03;1.50;78.19
70246;SHT30;57637;49.272;8.590;2024-01-16T10:24:29;1.49;77.27
70246;SHT30;57637;49.272;8.590;2024-01-16T10:26:58;1.62;77.14
70246;SHT30;57637;49.272;8.590;2024-01-16T10:29:31;1.66;77.49
70246;SHT30;57637;49.272;8.590;2024-01-16T10:31:57;1.66;77.19
70246;SHT30;57637;49.272;8.590;2024-01-16T10:34:24;1.73;77.24
70246;SHT30;57637;49.272;8.590;2024-01-16T10:36:50;1.90;76.94
70246;SHT30;57637;49.272;8.590;2024-01-16T10:39:19;2.01;76.08
70246;SHT30;57637;49.272;8.590;2024-01-16T10:42:06;2.11;75.71
70246;SHT30;57637;49.272;8.590;2024-01-16T10:44:31;2.13;75.72
70246;SHT30;57637;49.272;8.590;2024-01-16T10:47:09;2.15;74.84
70246;SHT30;57637;49.272;8.590;2024-01-16T10:49:35;2.15;75.60
70246;SHT30;57637;49.272;8.590;2024-01-16T10:52:01;2.17;74.63
70246;SHT30;57637;49.272;8.590;2024-01-16T10:54:26;2.40;74.72
70246;SHT30;57637;49.272;8.590;2024-01-16T10:56:52;2.32;73.08
70246;SHT30;57637;49.272;8.590;2024-01-16T10:59:19;2.42;73.67
70246;SHT30;57637;49.272;8.590;2024-01-16T11:01:50;2.63;73.68
70246;SHT30;57637;49.272;8.590;2024-01-16T11:04:20;2.58;73.65
70246;SHT30;57637;49.272;8.590;2024-01-16T11:06:46;2.71;73.36
70246;SHT30;57637;49.272;8.590;2024-01-16T11:09:12;2.86;73.30
70246;SHT30;57637;49.272;8.590;2024-01-16T11:11:40;2.93;73.39
70246;SHT30;57637;49.272;8.590;2024-01-16T11:14:08;2.72;72.03
70246;SHT30;57637;49.272;8.590;2024-01-16T11:16:34;2.61;72.14
70246;SHT30;57637;49.272;8.590;2024-01-16T11:19:00;2.83;73.54
70246;SHT30;57637;49.272;8.590;2024-01-16T11:21:25;2.72;72.30
70246;SHT30;57637;49.272;8.590;2024-01-16T11:23:51;2.88;72.59
70246;SHT30;57637;49.272;8.590;2024-01-16T11:26:27;2.89;72.18
70246;SHT30;57637;49.272;8.590;2024-01-16T11:28:54;2.97;72.46
70246;SHT30;57637;49.272;8.590;2024-01-16T11:31:30;2.95;71.61
70246;SHT30;57637;49.272;8.590;2024-01-16T11:33:57;2.91;72.22
70246;SHT30;57637;49.272;8.590;2024-01-16T11:39:22;2.99;72.58
70246;SHT30;57637;49.272;8.590;2024-01-16T11:47:07;3.13;70.56
70246;SHT30;57637;49.272;8.590;2024-01-16T11:49:37;3.24;71.12
70246;SHT30;57637;49.272;8.590;2024-01-16T11:52:02;3.27;70.26
70246;SHT30;57637;49.272;8.590;2024-01-16T11:54:28;3.40;70.62
70246;SHT30;57637;49.272;8.590;2024-01-16T11:59:55;3.43;68.80
70246;SHT30;57637;49.272;8.590;2024-01-16T12:03:06;3.41;68.60
70246;SHT30;57637;49.272;8.590;2024-01-16T12:05:20;3.68;69.50
70246;SHT30;57637;49.272;8.590;2024-01-16T12:07:46;3.63;68.15
70246;SHT30;57637;49.272;8.590;2024-01-16T12:10:17;3.79;68.03
70246;SHT30;57637;49.272;8.590;2024-01-16T12:12:44;3.67;68.61
70246;SHT30;57637;49.272;8.590;2024-01-16T12:15:14;3.77;69.38
70246;SHT30;57637;49.272;8.590;2024-01-16T12:20:21;3.67;68.37
70246;SHT30;57637;49.272;8.590;2024-01-16T12:22:54;3.58;68.78
70246;SHT30;57637;49.272;8.590;2024-01-16T12:25:21;3.33;67.98
70246;SHT30;57637;49.272;8.590;2024-01-16T12:28:00;3.30;68.56
70246;SHT30;57637;49.272;8.590;2024-01-16T12:30:26;3.22;68.42
70246;SHT30;57637;49.272;8.590;2024-01-16T12:33:14;3.31;68.02
70246;SHT30;57637;49.272;8.590;2024-01-16T12:35:39;3.34;69.01
70246;SHT30;57637;49.272;8.590;2024-01-16T12:38:07;3.40;69.28
70246;SHT30;57637;49.272;8.590;2024-01-16T12:40:37;3.34;68.65
70246;SHT30;57637;49.272;8.590;2024-01-16T12:43:07;3.20;68.18
70246;SHT30;57637;49.272;8.590;2024-01-16T12:45:36;3.44;67.94
70246;SHT30;57637;49.272;8.590;2024-01-16T12:48:02;3.48;67.32
70246;SHT30;57637;49.272;8.590;2024-01-16T12:50:29;3.36;66.87
70246;SHT30;57637;49.272;8.590;2024-01-16T12:55:26;3.61;67.25
70246;SHT30;57637;49.272;8.590;2024-01-16T13:00:37;3.94;67.06
70246;SHT30;57637;49.272;8.590;2024-01-16T13:03:03;3.73;66.30
70246;SHT30;57637;49.272;8.590;2024-01-16T13:05:29;3.65;66.72
70246;SHT30;57637;49.272;8.590;2024-01-16T13:08:03;3.57;66.65
70246;SHT30;57637;49.272;8.590;2024-01-16T13:10:29;3.50;66.90
70246;SHT30;57637;49.272;8.590;2024-01-16T13:13:16;3.53;67.81
70246;SHT30;57637;49.272;8.590;2024-01-16T13:15:42;3.58;67.79
70246;SHT30;57637;49.272;8.590;2024-01-16T13:18:18;3.48;68.24
70246;SHT30;57637;49.272;8.590;2024-01-16T13:20:45;3.47;67.96
70246;SHT30;57637;49.272;8.590;2024-01-16T13:23:12;3.36;67.13
70246;SHT30;57637;49.272;8.590;2024-01-16T13:25:39;3.34;66.93
70246;SHT30;57637;49.272;8.590;2024-01-16T13:28:04;3.34;67.00
70246;SHT30;57637;49.272;8.590;2024-01-16T13:30:32;3.34;66.64
70246;SHT30;57637;49.272;8.590;2024-01-16T13:32:58;3.33;66.37
70246;SHT30;57637;49.272;8.590;2024-01-16T13:35:23;3.43;66.51
70246;SHT30;57637;49.272;8.590;2024-01-16T13:37:48;3.43;66.09
70246;SHT30;57637;49.272;8.590;2024-01-16T13:40:15;3.34;65.70
70246;SHT30;57637;49.272;8.590;2024-01-16T13:42:47;3.22;65.37
70246;SHT30;57637;49.272;8.590;2024-01-16T13:45:13;3.10;65.93
70246;SHT30;57637;49.272;8.590;2024-01-16T13:47:39;3.24;66.62
70246;SHT30;57637;49.272;8.590;2024-01-16T13:50:06;3.26;65.55
70246;SHT30;57637;49.272;8.590;2024-01-16T13:52:32;3.37;66.06
70246;SHT30;57637;49.272;8.590;2024-01-16T13:54:58;3.38;65.62
70246;SHT30;57637;49.272;8.590;2024-01-16T13:57:24;3.43;65.75
70246;SHT30;57637;49.272;8.590;2024-01-16T13:59:49;3.43;65.89
70246;SHT30;57637;49.272;8.590;2024-01-16T14:02:16;3.50;65.27
70246;SHT30;57637;49.272;8.590;2024-01-16T14:04:41;3.57;64.40
70246;SHT30;57637;49.272;8.590;2024-01-16T14:07:06;3.65;64.64
70246;SHT30;57637;49.272;8.590;2024-01-16T14:09:33;3.71;63.35
70246;SHT30;57637;49.272;8.590;2024-01-16T14:11:59;3.82;63.54
70246;SHT30;57637;49.272;8.590;2024-01-16T14:14:24;3.91;62.15
70246;SHT30;57637;49.272;8.590;2024-01-16T14:16:50;3.89;61.70
70246;SHT30;57637;49.272;8.590;2024-01-16T14:19:15;3.84;61.66
70246;SHT30;57637;49.272;8.590;2024-01-16T14:21:41;3.87;62.00
70246;SHT30;57637;49.272;8.590;2024-01-16T14:24:06;3.79;62.26
70246;SHT30;57637;49.272;8.590;2024-01-16T14:26:32;3.92;62.31
70246;SHT30;57637;49.272;8.590;2024-01-16T14:28:57;3.71;61.88
70246;SHT30;57637;49.272;8.590;2024-01-16T14:31:23;3.71;62.87
70246;SHT30;57637;49.272;8.590;2024-01-16T14:33:48;3.71;63.15
70246;SHT30;57637;49.272;8.590;2024-01-16T14:36:13;3.61;62.24
70246;SHT30;57637;49.272;8.590;2024-01-16T14:38:39;3.56;63.18
70246;SHT30;57637;49.272;8.590;2024-01-16T14:41:04;3.40;62.49
70246;SHT30;57637;49.272;8.590;2024-01-16T14:43:30;3.44;63.42
70246;SHT30;57637;49.272;8.590;2024-01-16T14:45:56;3.37;63.56
70246;SHT30;57637;49.272;8.590;2024-01-16T14:48:23;3.23;62.68
70246;SHT30;57637;49.272;8.590;2024-01-16T14:50:48;3.07;62.13
70246;SHT30;57637;49.272;8.590;2024-01-16T14:53:15;2.93;63.08
70246;SHT30;57637;49.272;8.590;2024-01-16T14:55:41;2.81;62.42
70246;SHT30;57637;49.272;8.590;2024-01-16T14:58:07;2.69;63.54
70246;SHT30;57637;49.272;8.590;2024-01-16T15:00:36;2.65;64.83
70246;SHT30;57637;49.272;8.590;2024-01-16T15:03:02;2.48;64.34
70246;SHT30;57637;49.272;8.590;2024-01-16T15:05:27;2.34;64.77
70246;SHT30;57637;49.272;8.590;2024-01-16T15:07:53;2.25;65.55
70246;SHT30;57637;49.272;8.590;2024-01-16T15:10:18;2.13;65.04
70246;SHT30;57637;49.272;8.590;2024-01-16T15:12:44;2.01;65.90
70246;SHT30;57637;49.272;8.590;2024-01-16T15:15:10;1.91;66.36
70246;SHT30;57637;49.272;8.590;2024-01-16T15:17:38;1.83;66.64
70246;SHT30;57637;49.272;8.590;2024-01-16T15:20:04;1.74;66.78
70246;SHT30;57637;49.272;8.590;2024-01-16T15:22:33;1.67;66.90
70246;SHT30;57637;49.272;8.590;2024-01-16T15:25:12;1.53;67.14
70246;SHT30;57637;49.272;8.590;2024-01-16T15:27:41;1.39;67.89
70246;SHT30;57637;49.272;8.590;2024-01-16T15:30:08;1.35;68.42
70246;SHT30;57637;49.272;8.590;2024-01-16T15:32:35;1.24;68.43
70246;SHT30;57637;49.272;8.590;2024-01-16T15:35:01;1.19;69.01
70246;SHT30;57637;49.272;8.590;2024-01-16T15:37:27;1.01;68.10
70246;SHT30;57637;49.272;8.590;2024-01-16T15:39:53;0.95;69.08
70246;SHT30;57637;49.272;8.590;2024-01-16T15:42:18;0.81;69.28
70246;SHT30;57637;49.272;8.590;2024-01-16T15:44:43;0.74;69.79
70246;SHT30;57637;49.272;8.590;2024-01-16T15:47:09;0.67;70.24
70246;SHT30;57637;49.272;8.590;2024-01-16T15:49:34;0.57;70.38
70246;SHT30;57637;49.272;8.590;2024-01-16T15:52:00;0.49;70.75